createdAt,value
2018-03-21T00:00:22.144Z,3.57
2018-03-21T00:02:49.597Z,3.43
2018-03-21T00:05:17.060Z,3.47
2018-03-21T00:07:44.538Z,3.17
2018-03-21T00:10:11.973Z,3.23
2018-03-21T00:12:39.432Z,3.37
2018-03-21T00:15:06.872Z,4.10
2018-03-21T00:17:34.341Z,3.37
2018-03-21T00:20:01.784Z,3.57
2018-03-21T00:22:29.265Z,4.10
2018-03-21T00:24:56.745Z,4.40
2018-03-21T00:27:24.965Z,3.97
2018-03-21T00:29:52.445Z,3.30
2018-03-21T00:32:19.879Z,3.40
2018-03-21T00:34:47.345Z,4.03
2018-03-21T00:37:14.804Z,4.07
2018-03-21T00:39:42.261Z,3.63
2018-03-21T00:42:09.749Z,3.80
2018-03-21T00:44:37.205Z,3.60
2018-03-21T00:47:04.643Z,3.60
2018-03-21T00:49:32.104Z,3.67
2018-03-21T00:51:59.584Z,3.50
2018-03-21T00:54:27.792Z,3.40
2018-03-21T00:56:55.248Z,3.93
2018-03-21T00:59:22.705Z,3.53
2018-03-21T01:01:50.168Z,3.40
2018-03-21T01:04:17.630Z,3.97
2018-03-21T01:06:45.074Z,4.40
2018-03-21T01:09:12.553Z,4.73
2018-03-21T01:11:40.700Z,4.10
2018-03-21T01:14:08.129Z,4.67
2018-03-21T01:16:36.353Z,4.17
2018-03-21T01:19:03.803Z,4.07
2018-03-21T01:21:31.272Z,3.53
2018-03-21T01:23:58.722Z,3.07
2018-03-21T01:26:26.176Z,3.90
2018-03-21T01:28:53.637Z,4.00
2018-03-21T01:31:21.106Z,3.70
2018-03-21T01:33:48.581Z,4.23
2018-03-21T01:36:16.049Z,4.13
2018-03-21T01:38:44.284Z,3.80
2018-03-21T01:41:11.758Z,4.07
2018-03-21T01:43:39.214Z,4.07
2018-03-21T01:46:06.686Z,4.43
2018-03-21T01:48:34.125Z,4.20
2018-03-21T01:51:01.606Z,4.37
2018-03-21T01:53:29.829Z,4.00
2018-03-21T01:55:57.268Z,4.53
2018-03-21T01:58:24.741Z,4.20
2018-03-21T02:00:52.205Z,3.90
2018-03-21T02:03:20.430Z,4.60
2018-03-21T02:05:48.653Z,4.47
2018-03-21T02:08:16.165Z,4.37
2018-03-21T02:10:43.600Z,4.27
2018-03-21T02:13:11.066Z,4.67
2018-03-21T02:15:38.498Z,4.83
2018-03-21T02:18:05.953Z,4.60
2018-03-21T02:20:33.429Z,4.30
2018-03-21T02:23:00.865Z,4.37
2018-03-21T02:25:28.309Z,4.60
2018-03-21T02:27:56.524Z,5.17
2018-03-21T02:30:24.738Z,5.30
2018-03-21T02:32:52.216Z,5.10
2018-03-21T02:35:19.661Z,4.70
2018-03-21T02:37:47.136Z,5.60
2018-03-21T02:40:14.605Z,5.10
2018-03-21T02:42:42.052Z,4.93
2018-03-21T02:45:09.521Z,4.50
2018-03-21T02:47:36.993Z,4.03
2018-03-21T02:50:05.213Z,4.90
2018-03-21T02:52:32.681Z,4.30
2018-03-21T02:55:00.132Z,3.90
2018-03-21T02:57:27.585Z,4.27
2018-03-21T02:59:55.053Z,3.60
2018-03-21T03:02:22.601Z,4.20
2018-03-21T03:04:50.071Z,4.20
2018-03-21T03:07:17.521Z,3.97
2018-03-21T03:09:44.972Z,3.63
2018-03-21T03:12:12.421Z,4.20
2018-03-21T03:14:39.896Z,4.77
2018-03-21T03:17:07.368Z,4.47
2018-03-21T03:19:34.828Z,4.93
2018-03-21T03:22:02.305Z,4.60
2018-03-21T03:24:29.769Z,4.27
2018-03-21T03:26:57.998Z,3.90
2018-03-21T03:29:25.441Z,4.90
2018-03-21T03:31:52.918Z,4.67
2018-03-21T03:34:20.408Z,11.13
2018-03-21T03:36:47.877Z,7.87
2018-03-21T03:39:16.125Z,6.87
2018-03-21T03:41:43.573Z,7.47
2018-03-21T03:44:11.048Z,6.13
2018-03-21T03:46:38.522Z,5.07
2018-03-21T03:49:06.761Z,5.80
2018-03-21T03:51:34.237Z,5.57
2018-03-21T03:54:02.451Z,5.43
2018-03-21T03:56:29.916Z,5.33
2018-03-21T03:58:57.369Z,6.10
2018-03-21T04:01:24.826Z,5.37
2018-03-21T04:03:52.297Z,5.90
2018-03-21T04:06:19.736Z,6.27
2018-03-21T04:08:47.221Z,5.73
2018-03-21T04:11:14.687Z,5.97
2018-03-21T04:13:42.162Z,5.27
2018-03-21T04:16:09.646Z,5.57
2018-03-21T04:18:37.111Z,5.47
2018-03-21T04:21:05.396Z,5.10
2018-03-21T04:23:32.836Z,5.73
2018-03-21T04:26:00.328Z,4.83
2018-03-21T04:28:27.808Z,5.50
2018-03-21T04:30:55.292Z,4.93
2018-03-21T04:33:23.537Z,5.50
2018-03-21T04:35:51.012Z,5.73
2018-03-21T04:38:19.364Z,5.63
2018-03-21T04:40:46.820Z,4.70
2018-03-21T04:43:14.304Z,5.90
2018-03-21T04:45:41.784Z,5.57
2018-03-21T04:48:10.018Z,5.80
2018-03-21T04:50:37.472Z,5.50
2018-03-21T04:53:04.937Z,5.00
2018-03-21T04:55:32.427Z,5.37
2018-03-21T04:58:00.684Z,5.57
2018-03-21T05:00:28.164Z,5.80
2018-03-21T05:02:55.638Z,5.67
2018-03-21T05:05:23.100Z,5.60
2018-03-21T05:07:50.568Z,5.57
2018-03-21T05:10:18.011Z,6.30
2018-03-21T05:12:45.483Z,5.33
2018-03-21T05:15:13.692Z,5.57
2018-03-21T05:17:41.161Z,6.20
2018-03-21T05:20:08.634Z,6.33
2018-03-21T05:22:36.882Z,6.40
2018-03-21T05:25:04.365Z,6.23
2018-03-21T05:27:32.606Z,5.23
2018-03-21T05:30:00.047Z,5.63
2018-03-21T05:32:27.533Z,5.80
2018-03-21T05:34:54.976Z,6.13
2018-03-21T05:37:22.457Z,5.77
2018-03-21T05:39:50.697Z,7.17
2018-03-21T05:42:18.145Z,6.20
2018-03-21T05:44:45.592Z,6.53
2018-03-21T05:47:13.043Z,6.70
2018-03-21T05:49:40.506Z,5.80
2018-03-21T05:52:08.814Z,5.40
2018-03-21T05:54:36.296Z,5.50
2018-03-21T05:57:04.512Z,4.67
2018-03-21T05:59:31.985Z,5.57
2018-03-21T06:01:59.476Z,5.87
2018-03-21T06:04:26.917Z,6.37
2018-03-21T06:06:55.093Z,5.77
2018-03-21T06:09:22.560Z,7.10
2018-03-21T06:11:50.777Z,6.07
2018-03-21T06:14:18.257Z,6.27
2018-03-21T06:16:45.726Z,5.70
2018-03-21T06:19:13.182Z,6.10
2018-03-21T06:21:40.629Z,5.90
2018-03-21T06:24:08.101Z,5.27
2018-03-21T06:26:35.553Z,6.30
2018-03-21T06:29:03.040Z,10.57
2018-03-21T06:31:30.520Z,8.37
2018-03-21T06:33:58.210Z,6.80
2018-03-21T06:36:25.701Z,5.53
2018-03-21T06:38:53.153Z,6.00
2018-03-21T06:41:20.594Z,6.37
2018-03-21T06:43:48.100Z,6.17
2018-03-21T06:46:15.537Z,6.33
2018-03-21T06:48:43.745Z,5.97
2018-03-21T06:51:11.254Z,5.97
2018-03-21T06:53:39.514Z,6.50
2018-03-21T06:56:06.973Z,5.80
2018-03-21T06:58:34.457Z,6.23
2018-03-21T07:01:02.673Z,7.27
2018-03-21T07:03:30.120Z,6.70
2018-03-21T07:05:57.583Z,6.50
2018-03-21T07:08:25.036Z,5.87
2018-03-21T07:10:52.574Z,6.70
2018-03-21T07:13:20.809Z,7.20
2018-03-21T07:16:00.344Z,6.90
2018-03-21T07:18:27.804Z,7.30
2018-03-21T07:20:55.249Z,6.83
2018-03-21T07:23:22.701Z,6.30
2018-03-21T07:25:50.142Z,4.93
2018-03-21T07:28:17.616Z,5.33
2018-03-21T07:30:45.049Z,5.00
2018-03-21T07:33:12.513Z,4.70
2018-03-21T07:35:39.977Z,4.40
2018-03-21T07:38:07.440Z,5.20
2018-03-21T07:40:34.912Z,4.60
2018-03-21T07:43:02.344Z,5.00
2018-03-21T07:45:29.789Z,5.23
2018-03-21T07:47:57.247Z,5.10
2018-03-21T07:50:24.680Z,5.33
2018-03-21T07:52:52.158Z,6.27
2018-03-21T07:55:19.661Z,5.30
2018-03-21T07:57:47.101Z,5.77
2018-03-21T08:00:14.557Z,5.40
2018-03-21T08:02:42.024Z,5.53
2018-03-21T08:05:09.501Z,6.50
2018-03-21T08:07:37.733Z,5.60
2018-03-21T08:10:05.190Z,6.10
2018-03-21T08:12:32.653Z,6.17
2018-03-21T08:15:00.115Z,5.70
2018-03-21T08:17:27.557Z,6.10
2018-03-21T08:19:55.010Z,5.90
2018-03-21T08:22:22.488Z,6.37
2018-03-21T08:24:49.983Z,7.40
2018-03-21T08:27:18.195Z,7.30
2018-03-21T08:29:46.181Z,7.07
2018-03-21T08:32:13.664Z,6.97
2018-03-21T08:34:41.097Z,7.87
2018-03-21T08:37:08.580Z,7.30
2018-03-21T08:39:35.994Z,6.80
2018-03-21T08:42:03.480Z,7.13
2018-03-21T08:44:30.950Z,7.23
2018-03-21T08:46:58.389Z,8.13
2018-03-21T08:49:25.850Z,7.80
2018-03-21T08:51:53.310Z,8.07
2018-03-21T08:54:21.669Z,8.33
2018-03-21T08:56:49.890Z,7.90
2018-03-21T08:59:18.095Z,7.33
2018-03-21T09:01:45.543Z,8.33
2018-03-21T09:04:13.005Z,9.77
2018-03-21T09:06:40.530Z,11.40
2018-03-21T09:09:08.731Z,13.97
2018-03-21T09:11:36.292Z,20.93
2018-03-21T09:14:03.778Z,20.47
2018-03-21T09:16:31.243Z,23.17
2018-03-21T09:18:58.731Z,23.23
2018-03-21T09:21:26.938Z,26.90
2018-03-21T09:23:54.386Z,26.23
2018-03-21T09:26:21.860Z,27.50
2018-03-21T09:28:49.342Z,29.30
2018-03-21T09:31:16.788Z,30.43
2018-03-21T09:33:44.260Z,30.57
2018-03-21T09:36:11.736Z,30.37
2018-03-21T09:38:39.972Z,29.80
2018-03-21T09:41:07.436Z,34.33
2018-03-21T09:43:34.893Z,35.70
2018-03-21T09:46:02.353Z,35.07
2018-03-21T09:48:29.821Z,34.80
2018-03-21T09:50:57.299Z,36.17
2018-03-21T09:53:25.528Z,36.87
2018-03-21T09:55:53.004Z,36.77
2018-03-21T09:58:20.471Z,40.13
2018-03-21T10:00:47.946Z,37.93
2018-03-21T10:03:16.202Z,43.47
2018-03-21T10:05:43.671Z,42.80
2018-03-21T10:08:11.132Z,42.43
2018-03-21T10:10:39.378Z,42.77
2018-03-21T10:13:06.869Z,43.97
2018-03-21T10:15:35.092Z,43.47
2018-03-21T10:18:02.564Z,42.93
2018-03-21T10:20:30.013Z,42.13
2018-03-21T10:22:57.488Z,42.13
2018-03-21T10:25:24.956Z,42.27
2018-03-21T10:27:52.419Z,44.07
2018-03-21T10:30:19.895Z,41.97
2018-03-21T10:32:48.128Z,41.23
2018-03-21T10:35:15.612Z,40.43
2018-03-21T10:37:43.820Z,40.80
2018-03-21T10:40:11.301Z,42.37
2018-03-21T10:42:38.771Z,42.53
2018-03-21T10:45:06.231Z,40.97
2018-03-21T10:47:33.720Z,42.17
2018-03-21T10:50:01.934Z,40.27
2018-03-21T10:52:38.778Z,40.10
2018-03-21T10:54:56.844Z,38.50
2018-03-21T10:57:24.290Z,40.00
2018-03-21T10:59:51.746Z,43.77
2018-03-21T11:02:19.220Z,41.73
2018-03-21T11:04:46.661Z,42.60
2018-03-21T11:07:14.133Z,38.80
2018-03-21T11:09:41.610Z,41.07
2018-03-21T11:12:09.077Z,42.20
2018-03-21T11:14:36.531Z,35.43
2018-03-21T11:17:04.009Z,36.77
2018-03-21T11:19:32.226Z,38.07
2018-03-21T11:21:59.692Z,38.63
2018-03-21T11:24:27.169Z,36.33
2018-03-21T11:26:54.628Z,40.00
2018-03-21T11:29:22.081Z,38.00
2018-03-21T11:31:49.522Z,37.77
2018-03-21T11:34:16.986Z,36.40
2018-03-21T11:36:44.461Z,37.40
2018-03-21T11:39:11.928Z,39.27
2018-03-21T11:41:39.381Z,39.00
2018-03-21T11:44:06.834Z,36.87
2018-03-21T11:46:34.290Z,38.37
2018-03-21T11:49:01.768Z,39.13
2018-03-21T11:51:29.192Z,39.10
2018-03-21T11:53:56.646Z,38.03
2018-03-21T11:56:24.175Z,37.47
2018-03-21T11:58:51.581Z,37.83
2018-03-21T12:01:19.048Z,38.43
2018-03-21T12:03:47.268Z,36.47
2018-03-21T12:06:14.742Z,38.47
2018-03-21T12:08:42.337Z,36.90
2018-03-21T12:11:09.704Z,36.40
2018-03-21T12:13:37.913Z,35.20
2018-03-21T12:16:05.373Z,37.30
2018-03-21T12:18:32.824Z,35.00
2018-03-21T12:21:00.294Z,35.53
2018-03-21T12:23:27.778Z,31.43
2018-03-21T12:25:55.224Z,30.93
2018-03-21T12:28:22.696Z,26.80
2018-03-21T12:30:50.140Z,30.93
2018-03-21T12:33:17.599Z,33.27
2018-03-21T12:35:45.064Z,32.27
2018-03-21T12:38:12.598Z,32.13
2018-03-21T12:40:40.840Z,31.13
2018-03-21T12:43:09.041Z,31.13
2018-03-21T12:45:36.515Z,31.87
2018-03-21T12:48:04.006Z,33.03
2018-03-21T12:50:32.248Z,34.00
2018-03-21T12:52:59.714Z,33.07
2018-03-21T12:55:27.180Z,34.53
2018-03-21T12:57:55.415Z,36.43
2018-03-21T13:00:22.893Z,32.07
2018-03-21T13:02:50.342Z,32.50
2018-03-21T13:05:17.799Z,33.37
2018-03-21T13:07:45.277Z,30.50
2018-03-21T13:10:12.736Z,32.20
2018-03-21T13:12:40.204Z,31.93
2018-03-21T13:15:08.435Z,29.80
2018-03-21T13:17:35.881Z,28.23
2018-03-21T13:20:03.342Z,27.77
2018-03-21T13:22:30.824Z,25.97
2018-03-21T13:24:58.404Z,33.43
2018-03-21T13:27:25.845Z,29.20
2018-03-21T13:29:53.345Z,29.90
2018-03-21T13:32:20.841Z,29.43
2018-03-21T13:34:48.330Z,26.20
2018-03-21T13:37:16.590Z,26.77
2018-03-21T13:39:44.074Z,27.27
2018-03-21T13:42:12.358Z,28.10
2018-03-21T13:44:39.838Z,28.53
2018-03-21T13:47:07.350Z,29.57
2018-03-21T13:49:35.656Z,27.07
2018-03-21T13:52:03.225Z,27.73
2018-03-21T13:54:30.698Z,26.97
2018-03-21T13:56:58.170Z,27.03
2018-03-21T13:59:25.651Z,27.53
2018-03-21T14:01:53.121Z,26.33
2018-03-21T14:04:21.336Z,24.90
2018-03-21T14:06:48.832Z,27.03
2018-03-21T14:09:16.291Z,26.63
2018-03-21T14:11:43.738Z,27.17
2018-03-21T14:14:11.221Z,27.77
2018-03-21T14:16:39.463Z,38.23
2018-03-21T14:19:06.910Z,24.17
2018-03-21T14:21:34.449Z,20.70
2018-03-21T14:24:01.979Z,19.93
2018-03-21T14:26:29.534Z,20.33
2018-03-21T14:28:57.125Z,19.70
2018-03-21T14:31:24.605Z,17.60
2018-03-21T14:33:52.073Z,19.17
2018-03-21T14:36:19.551Z,17.83
2018-03-21T14:38:47.778Z,17.40
2018-03-21T14:41:15.276Z,17.77
2018-03-21T14:43:42.736Z,15.40
2018-03-21T14:46:10.210Z,15.03
2018-03-21T14:48:38.501Z,16.73
2018-03-21T14:51:06.026Z,16.73
2018-03-21T14:53:33.555Z,16.93
2018-03-21T14:56:01.324Z,16.30
2018-03-21T14:58:28.778Z,17.07
2018-03-21T15:00:56.217Z,16.60
2018-03-21T15:03:23.697Z,13.33
2018-03-21T15:05:52.080Z,13.40
2018-03-21T15:08:19.541Z,15.63
2018-03-21T15:10:47.380Z,14.67
2018-03-21T15:13:15.544Z,14.37
2018-03-21T15:15:43.267Z,14.07
2018-03-21T15:18:11.522Z,16.20
2018-03-21T15:20:39.025Z,16.07
2018-03-21T15:23:06.506Z,14.13
2018-03-21T15:25:33.985Z,15.77
2018-03-21T15:28:01.466Z,16.63
2018-03-21T15:30:28.962Z,17.87
2018-03-21T15:32:56.452Z,15.27
2018-03-21T15:35:23.922Z,14.80
2018-03-21T15:37:51.418Z,16.50
2018-03-21T15:40:18.870Z,15.07
2018-03-21T15:42:47.096Z,13.17
2018-03-21T15:45:14.633Z,12.73
2018-03-21T15:47:42.137Z,12.50
2018-03-21T15:50:09.776Z,11.93
2018-03-21T15:52:38.166Z,12.93
2018-03-21T15:55:05.724Z,16.73
2018-03-21T15:57:34.105Z,13.00
2018-03-21T16:00:01.689Z,13.10
2018-03-21T16:02:29.308Z,14.00
2018-03-21T16:04:56.888Z,14.07
2018-03-21T16:07:25.238Z,14.27
2018-03-21T16:09:52.806Z,13.73
2018-03-21T16:12:20.394Z,13.67
2018-03-21T16:14:48.704Z,15.07
2018-03-21T16:17:16.290Z,12.90
2018-03-21T16:19:44.682Z,12.60
2018-03-21T16:22:13.070Z,12.80
2018-03-21T16:24:41.464Z,12.47
2018-03-21T16:27:09.096Z,14.33
2018-03-21T16:29:36.595Z,12.50
2018-03-21T16:32:04.117Z,12.00
2018-03-21T16:34:31.654Z,18.37
2018-03-21T16:36:59.185Z,12.50
2018-03-21T16:39:26.742Z,10.90
2018-03-21T16:41:58.057Z,12.87
2018-03-21T16:44:25.662Z,10.50
2018-03-21T16:46:53.207Z,10.57
2018-03-21T16:49:20.814Z,9.77
2018-03-21T16:51:48.401Z,10.37
2018-03-21T16:54:16.649Z,10.30
2018-03-21T16:56:44.288Z,10.93
2018-03-21T16:59:11.962Z,9.43
2018-03-21T17:01:39.463Z,10.00
2018-03-21T17:04:07.718Z,10.60
2018-03-21T17:06:35.215Z,10.87
2018-03-21T17:09:02.764Z,9.67
2018-03-21T17:11:31.217Z,10.33
2018-03-21T17:13:58.695Z,9.77
2018-03-21T17:16:27.553Z,10.20
2018-03-21T17:18:55.826Z,9.47
2018-03-21T17:21:24.137Z,11.27
2018-03-21T17:23:53.279Z,10.20
2018-03-21T17:26:20.820Z,11.83
2018-03-21T17:28:48.706Z,12.03
2018-03-21T17:31:18.194Z,12.93
2018-03-21T17:33:46.065Z,13.90
2018-03-21T17:36:13.607Z,12.93
2018-03-21T17:38:41.096Z,15.93
2018-03-21T17:41:08.624Z,19.77
2018-03-21T17:43:36.874Z,18.37
2018-03-21T17:46:05.162Z,18.43
2018-03-21T17:48:32.697Z,17.43
2018-03-21T17:51:01.013Z,18.43
2018-03-21T17:53:29.702Z,18.27
2018-03-21T17:55:57.211Z,18.50
2018-03-21T17:58:24.715Z,16.77
2018-03-21T18:00:52.195Z,19.83
2018-03-21T18:03:21.322Z,17.10
2018-03-21T18:05:49.210Z,17.50
2018-03-21T18:08:18.911Z,16.97
2018-03-21T18:10:47.779Z,15.53
2018-03-21T18:13:16.324Z,15.10
2018-03-21T18:15:43.846Z,15.10
2018-03-21T18:18:13.018Z,16.50
2018-03-21T18:20:41.402Z,16.90
2018-03-21T18:23:08.907Z,16.70
2018-03-21T18:25:36.684Z,17.27
2018-03-21T18:28:04.212Z,17.23
2018-03-21T18:30:32.470Z,16.70
2018-03-21T18:33:04.118Z,14.63
2018-03-21T18:35:31.640Z,16.07
2018-03-21T18:37:59.862Z,14.20
2018-03-21T18:40:27.363Z,13.13
2018-03-21T18:42:55.615Z,12.77
2018-03-21T18:45:24.320Z,14.10
2018-03-21T18:47:51.852Z,13.33
2018-03-21T18:50:19.751Z,13.63
2018-03-21T18:52:48.138Z,17.10
2018-03-21T18:55:16.131Z,17.53
2018-03-21T18:57:45.031Z,16.50
2018-03-21T19:00:12.564Z,16.47
2018-03-21T19:02:40.067Z,16.63
2018-03-21T19:05:07.643Z,16.67
2018-03-21T19:07:35.162Z,17.00
2018-03-21T19:10:03.447Z,17.93
2018-03-21T19:12:32.291Z,16.87
2018-03-21T19:14:59.780Z,17.73
2018-03-21T19:17:28.932Z,17.47
2018-03-21T19:19:58.242Z,17.23
2018-03-21T19:22:26.810Z,17.73
2018-03-21T19:24:56.621Z,18.17
2018-03-21T19:27:24.621Z,19.17
2018-03-21T19:29:52.944Z,16.10
2018-03-21T19:32:24.393Z,17.73
2018-03-21T19:34:51.946Z,17.73
2018-03-21T19:37:20.314Z,18.37
2018-03-21T19:39:48.040Z,16.77
2018-03-21T19:42:16.453Z,15.93
2018-03-21T19:44:44.751Z,13.90
2018-03-21T19:47:13.284Z,15.80
2018-03-21T19:49:43.525Z,14.90
2018-03-21T19:52:15.033Z,14.50
2018-03-21T19:54:42.690Z,15.37
2018-03-21T19:57:10.989Z,15.30
2018-03-21T19:59:38.620Z,19.97
2018-03-21T20:02:07.853Z,19.13
2018-03-21T20:04:36.919Z,16.13
2018-03-21T20:07:06.961Z,14.87
2018-03-21T20:09:36.029Z,16.73
2018-03-21T20:12:09.143Z,15.30
2018-03-21T20:14:43.597Z,15.50
2018-03-21T20:17:12.373Z,15.63
2018-03-21T20:19:44.200Z,15.93
2018-03-21T20:22:14.174Z,16.47
2018-03-21T20:24:43.145Z,16.03
2018-03-21T20:27:11.570Z,16.07
2018-03-21T20:29:39.373Z,16.10
2018-03-21T20:32:07.714Z,16.13
2018-03-21T20:34:37.902Z,17.47
2018-03-21T20:37:09.082Z,17.83
2018-03-21T20:39:38.301Z,25.23
2018-03-21T20:42:06.541Z,22.90
2018-03-21T20:44:34.093Z,18.53
2018-03-21T20:47:03.582Z,21.50
2018-03-21T20:49:33.872Z,19.80
2018-03-21T20:52:01.723Z,20.77
2018-03-21T20:54:30.627Z,19.63
2018-03-21T20:56:58.467Z,20.40
2018-03-21T20:59:26.090Z,18.77
2018-03-21T21:01:54.469Z,20.07
2018-03-21T21:04:23.294Z,20.03
2018-03-21T21:06:51.938Z,22.10
2018-03-21T21:09:21.094Z,20.57
2018-03-21T21:11:48.789Z,18.40
2018-03-21T21:14:16.358Z,18.77
2018-03-21T21:16:46.142Z,17.70
2018-03-21T21:19:13.715Z,20.27
2018-03-21T21:21:42.161Z,19.03
2018-03-21T21:24:09.887Z,19.17
2018-03-21T21:26:39.448Z,19.80
2018-03-21T21:29:08.089Z,19.07
2018-03-21T21:31:36.688Z,19.93
2018-03-21T21:34:05.584Z,21.77
2018-03-21T21:36:34.453Z,21.60
2018-03-21T21:39:02.015Z,21.00
2018-03-21T21:41:30.931Z,20.23
2018-03-21T21:43:59.426Z,22.33
2018-03-21T21:46:28.481Z,18.73
2018-03-21T21:48:56.856Z,19.57
2018-03-21T21:51:24.771Z,20.27
2018-03-21T21:53:52.300Z,20.07
2018-03-21T21:56:19.808Z,19.00
2018-03-21T21:58:48.657Z,19.10
2018-03-21T22:01:17.314Z,19.53
2018-03-21T22:03:44.803Z,19.87
2018-03-21T22:06:12.296Z,19.93
2018-03-21T22:08:40.587Z,19.23
2018-03-21T22:11:12.463Z,18.90
2018-03-21T22:13:40.744Z,20.17
2018-03-21T22:16:09.005Z,19.50
2018-03-21T22:18:36.478Z,20.23
2018-03-21T22:21:03.965Z,19.07
2018-03-21T22:23:32.357Z,20.03
2018-03-21T22:25:59.830Z,20.17
2018-03-21T22:28:28.912Z,20.33
2018-03-21T22:30:56.428Z,20.53
2018-03-21T22:33:24.046Z,20.97
2018-03-21T22:35:52.300Z,20.63
2018-03-21T22:38:20.579Z,21.10
2018-03-21T22:40:48.075Z,20.97
2018-03-21T22:43:15.584Z,21.33
2018-03-21T22:45:43.040Z,22.50
2018-03-21T22:48:10.521Z,22.13
2018-03-21T22:50:38.773Z,23.33
2018-03-21T22:53:06.228Z,22.97
2018-03-21T22:55:34.442Z,21.50
2018-03-21T22:58:01.928Z,22.20
2018-03-21T23:00:29.376Z,21.77
2018-03-21T23:02:56.855Z,19.87
2018-03-21T23:05:24.394Z,19.57
2018-03-21T23:07:51.861Z,20.50
2018-03-21T23:10:19.303Z,21.13
2018-03-21T23:12:46.776Z,21.10
2018-03-21T23:15:14.221Z,20.93
2018-03-21T23:17:41.672Z,21.53
2018-03-21T23:20:09.145Z,21.83
2018-03-21T23:22:36.597Z,20.33
2018-03-21T23:25:04.077Z,20.33
2018-03-21T23:27:31.515Z,21.07
2018-03-21T23:29:58.965Z,21.60
2018-03-21T23:32:26.439Z,21.23
2018-03-21T23:34:53.916Z,21.87
2018-03-21T23:37:21.623Z,20.73
2018-03-21T23:39:49.247Z,19.87
2018-03-21T23:42:16.875Z,21.03
2018-03-21T23:44:44.490Z,21.00
2018-03-21T23:47:12.815Z,19.93
2018-03-21T23:49:40.317Z,21.17
2018-03-21T23:52:08.557Z,22.33
2018-03-21T23:54:36.010Z,20.77
2018-03-21T23:57:03.458Z,21.53
2018-03-21T23:59:31.700Z,20.43
